sensor_id;sensor_type;location;lat;lon;timestamp;P1;durP1;ratioP1;P2;durP2;ratioP2
12812;SDS011;6471;50.932;6.934;2023-04-29T00:00:39;9.00;;;7.00;;
12812;SDS011;6471;50.932;6.934;2023-04-29T00:03:14;9.60;;;7.20;;
12812;SDS011;6471;50.932;6.934;2023-04-29T00:05:40;9.53;;;7.67;;
12812;SDS011;6471;50.932;6.934;2023-04-29T00:08:12;11.07;;;7.67;;
12812;SDS011;6471;50.932;6.934;2023-04-29T00:10:39;9.67;;;7.10;;
12812;SDS011;6471;50.932;6.934;2023-04-29T00:13:08;9.83;;;7.27;;
12812;SDS011;6471;50.932;6.934;2023-04-29T00:15:49;8.53;;;6.80;;
12812;SDS011;6471;50.932;6.934;2023-04-29T00:18:25;9.47;;;6.80;;
12812;SDS011;6471;50.932;6.934;2023-04-29T00:23:33;12.13;;;7.47;;
12812;SDS011;6471;50.932;6.934;2023-04-29T00:26:19;11.23;;;7.43;;
12812;SDS011;6471;50.932;6.934;2023-04-29T00:29:03;10.07;;;7.30;;
12812;SDS011;6471;50.932;6.934;2023-04-29T00:31:42;10.50;;;7.20;;
12812;SDS011;6471;50.932;6.934;2023-04-29T00:54:54;12.20;;;7.30;;
12812;SDS011;6471;50.932;6.934;2023-04-29T00:57:56;13.47;;;8.03;;
12812;SDS011;6471;50.932;6.934;2023-04-29T01:00:34;13.33;;;8.23;;
12812;SDS011;6471;50.932;6.934;2023-04-29T01:22:17;13.83;;;9.33;;
12812;SDS011;6471;50.932;6.934;2023-04-29T01:24:45;12.63;;;8.13;;
12812;SDS011;6471;50.932;6.934;2023-04-29T01:27:28;10.67;;;7.37;;
12812;SDS011;6471;50.932;6.934;2023-04-29T01:39:15;15.23;;;8.80;;
12812;SDS011;6471;50.932;6.934;2023-04-29T01:44:58;16.77;;;10.33;;
12812;SDS011;6471;50.932;6.934;2023-04-29T01:48:11;17.87;;;11.13;;
12812;SDS011;6471;50.932;6.934;2023-04-29T05:24:16;30.77;;;17.17;;
12812;SDS011;6471;50.932;6.934;2023-04-29T05:34:58;28.10;;;15.90;;
12812;SDS011;6471;50.932;6.934;2023-04-29T05:37:27;30.47;;;16.77;;
12812;SDS011;6471;50.932;6.934;2023-04-29T05:39:56;30.50;;;16.67;;
12812;SDS011;6471;50.932;6.934;2023-04-29T05:42:22;28.13;;;15.63;;
12812;SDS011;6471;50.932;6.934;2023-04-29T05:44:49;24.73;;;13.93;;
12812;SDS011;6471;50.932;6.934;2023-04-29T05:47:15;23.77;;;13.33;;
12812;SDS011;6471;50.932;6.934;2023-04-29T05:49:43;25.70;;;14.43;;
12812;SDS011;6471;50.932;6.934;2023-04-29T05:52:09;23.77;;;14.13;;
12812;SDS011;6471;50.932;6.934;2023-04-29T05:54:35;29.17;;;15.57;;
12812;SDS011;6471;50.932;6.934;2023-04-29T05:57:02;25.13;;;14.47;;
12812;SDS011;6471;50.932;6.934;2023-04-29T05:59:28;25.47;;;14.57;;
12812;SDS011;6471;50.932;6.934;2023-04-29T06:01:55;21.83;;;12.77;;
12812;SDS011;6471;50.932;6.934;2023-04-29T06:04:22;21.80;;;12.23;;
12812;SDS011;6471;50.932;6.934;2023-04-29T06:06:48;19.33;;;11.53;;
12812;SDS011;6471;50.932;6.934;2023-04-29T06:09:15;22.10;;;12.53;;
12812;SDS011;6471;50.932;6.934;2023-04-29T06:11:41;18.10;;;11.63;;
12812;SDS011;6471;50.932;6.934;2023-04-29T06:14:14;18.03;;;11.33;;
12812;SDS011;6471;50.932;6.934;2023-04-29T06:16:46;21.50;;;12.33;;
12812;SDS011;6471;50.932;6.934;2023-04-29T06:19:16;20.60;;;11.50;;
12812;SDS011;6471;50.932;6.934;2023-04-29T06:21:51;18.33;;;11.43;;
12812;SDS011;6471;50.932;6.934;2023-04-29T06:24:32;19.53;;;11.50;;
12812;SDS011;6471;50.932;6.934;2023-04-29T06:30:35;17.60;;;11.07;;
12812;SDS011;6471;50.932;6.934;2023-04-29T06:39:30;18.40;;;10.13;;
12812;SDS011;6471;50.932;6.934;2023-04-29T06:41:56;19.10;;;11.50;;
12812;SDS011;6471;50.932;6.934;2023-04-29T06:44:22;17.57;;;11.50;;
12812;SDS011;6471;50.932;6.934;2023-04-29T06:46:49;16.57;;;10.60;;
12812;SDS011;6471;50.932;6.934;2023-04-29T06:49:15;18.37;;;11.53;;
12812;SDS011;6471;50.932;6.934;2023-04-29T06:51:41;18.43;;;11.83;;
12812;SDS011;6471;50.932;6.934;2023-04-29T06:54:07;19.30;;;11.93;;
12812;SDS011;6471;50.932;6.934;2023-04-29T06:56:33;19.03;;;11.63;;
12812;SDS011;6471;50.932;6.934;2023-04-29T06:58:59;20.77;;;11.50;;
12812;SDS011;6471;50.932;6.934;2023-04-29T07:01:25;17.90;;;11.53;;
12812;SDS011;6471;50.932;6.934;2023-04-29T07:03:51;15.90;;;10.90;;
12812;SDS011;6471;50.932;6.934;2023-04-29T07:06:19;17.80;;;10.70;;
12812;SDS011;6471;50.932;6.934;2023-04-29T07:08:45;15.33;;;9.23;;
12812;SDS011;6471;50.932;6.934;2023-04-29T07:11:27;16.10;;;9.83;;
12812;SDS011;6471;50.932;6.934;2023-04-29T07:20:24;16.60;;;11.40;;
12812;SDS011;6471;50.932;6.934;2023-04-29T07:23:13;16.57;;;10.87;;
12812;SDS011;6471;50.932;6.934;2023-04-29T07:45:40;15.80;;;11.00;;
12812;SDS011;6471;50.932;6.934;2023-04-29T07:48:08;16.83;;;11.23;;
12812;SDS011;6471;50.932;6.934;2023-04-29T07:50:51;17.27;;;11.40;;
12812;SDS011;6471;50.932;6.934;2023-04-29T07:59:54;16.60;;;11.50;;
12812;SDS011;6471;50.932;6.934;2023-04-29T08:02:20;15.43;;;10.70;;
12812;SDS011;6471;50.932;6.934;2023-04-29T08:33:07;17.27;;;10.47;;
12812;SDS011;6471;50.932;6.934;2023-04-29T10:27:00;19.20;;;12.30;;
12812;SDS011;6471;50.932;6.934;2023-04-29T10:29:27;16.67;;;11.57;;
12812;SDS011;6471;50.932;6.934;2023-04-29T10:31:54;15.90;;;10.40;;
12812;SDS011;6471;50.932;6.934;2023-04-29T10:34:22;17.73;;;11.17;;
12812;SDS011;6471;50.932;6.934;2023-04-29T10:36:48;14.07;;;10.83;;
12812;SDS011;6471;50.932;6.934;2023-04-29T10:39:20;15.23;;;10.53;;
12812;SDS011;6471;50.932;6.934;2023-04-29T10:41:48;16.03;;;11.30;;
12812;SDS011;6471;50.932;6.934;2023-04-29T10:44:15;13.57;;;9.57;;
12812;SDS011;6471;50.932;6.934;2023-04-29T10:46:42;13.23;;;8.73;;
12812;SDS011;6471;50.932;6.934;2023-04-29T10:49:08;13.13;;;9.07;;
12812;SDS011;6471;50.932;6.934;2023-04-29T10:51:42;14.60;;;10.10;;
12812;SDS011;6471;50.932;6.934;2023-04-29T10:54:12;15.07;;;10.23;;
12812;SDS011;6471;50.932;6.934;2023-04-29T10:59:09;23.17;;;14.37;;
12812;SDS011;6471;50.932;6.934;2023-04-29T11:01:40;29.53;;;18.37;;
12812;SDS011;6471;50.932;6.934;2023-04-29T11:04:06;31.93;;;19.50;;
12812;SDS011;6471;50.932;6.934;2023-04-29T11:09:03;31.83;;;19.83;;
12812;SDS011;6471;50.932;6.934;2023-04-29T11:16:56;25.87;;;15.97;;
12812;SDS011;6471;50.932;6.934;2023-04-29T11:19:44;23.57;;;15.97;;
12812;SDS011;6471;50.932;6.934;2023-04-29T11:24:48;23.00;;;15.03;;
12812;SDS011;6471;50.932;6.934;2023-04-29T11:27:14;39.33;;;22.67;;
12812;SDS011;6471;50.932;6.934;2023-04-29T11:29:41;43.10;;;24.73;;
12812;SDS011;6471;50.932;6.934;2023-04-29T11:32:07;37.63;;;22.63;;
12812;SDS011;6471;50.932;6.934;2023-04-29T11:34:33;36.67;;;22.60;;
12812;SDS011;6471;50.932;6.934;2023-04-29T11:36:59;32.03;;;20.83;;
12812;SDS011;6471;50.932;6.934;2023-04-29T11:39:29;29.30;;;19.23;;
12812;SDS011;6471;50.932;6.934;2023-04-29T11:42:07;27.50;;;18.63;;
12812;SDS011;6471;50.932;6.934;2023-04-29T11:44:33;29.00;;;18.30;;
12812;SDS011;6471;50.932;6.934;2023-04-29T11:47:00;29.03;;;17.73;;
12812;SDS011;6471;50.932;6.934;2023-04-29T11:49:30;36.43;;;22.57;;
12812;SDS011;6471;50.932;6.934;2023-04-29T11:51:56;36.27;;;21.73;;
12812;SDS011;6471;50.932;6.934;2023-04-29T11:54:39;32.17;;;20.60;;
12812;SDS011;6471;50.932;6.934;2023-04-29T11:57:14;43.77;;;26.23;;
12812;SDS011;6471;50.932;6.934;2023-04-29T11:59:43;45.67;;;28.87;;
12812;SDS011;6471;50.932;6.934;2023-04-29T12:02:10;46.53;;;28.90;;
12812;SDS011;6471;50.932;6.934;2023-04-29T12:04:45;49.53;;;30.20;;
12812;SDS011;6471;50.932;6.934;2023-04-29T12:07:14;46.00;;;28.43;;
12812;SDS011;6471;50.932;6.934;2023-04-29T12:09:43;51.00;;;31.87;;
12812;SDS011;6471;50.932;6.934;2023-04-29T12:12:10;46.67;;;29.27;;
12812;SDS011;6471;50.932;6.934;2023-04-29T12:14:36;46.30;;;29.53;;
12812;SDS011;6471;50.932;6.934;2023-04-29T12:17:03;44.20;;;28.30;;
12812;SDS011;6471;50.932;6.934;2023-04-29T12:19:29;50.77;;;31.40;;
12812;SDS011;6471;50.932;6.934;2023-04-29T12:22:01;49.30;;;30.90;;
12812;SDS011;6471;50.932;6.934;2023-04-29T12:24:28;48.70;;;31.53;;
12812;SDS011;6471;50.932;6.934;2023-04-29T12:26:54;49.73;;;32.07;;
12812;SDS011;6471;50.932;6.934;2023-04-29T12:29:20;52.53;;;32.27;;
12812;SDS011;6471;50.932;6.934;2023-04-29T12:31:47;46.93;;;30.90;;
12812;SDS011;6471;50.932;6.934;2023-04-29T12:34:14;40.83;;;27.40;;
12812;SDS011;6471;50.932;6.934;2023-04-29T12:36:43;44.10;;;28.60;;
12812;SDS011;6471;50.932;6.934;2023-04-29T12:39:09;44.23;;;26.83;;
12812;SDS011;6471;50.932;6.934;2023-04-29T12:41:36;36.67;;;24.10;;
12812;SDS011;6471;50.932;6.934;2023-04-29T12:44:03;36.20;;;24.30;;
12812;SDS011;6471;50.932;6.934;2023-04-29T12:46:32;35.67;;;23.87;;
12812;SDS011;6471;50.932;6.934;2023-04-29T12:49:01;36.97;;;25.17;;
12812;SDS011;6471;50.932;6.934;2023-04-29T12:51:28;34.63;;;22.07;;
12812;SDS011;6471;50.932;6.934;2023-04-29T12:53:56;27.67;;;19.67;;
12812;SDS011;6471;50.932;6.934;2023-04-29T12:56:22;28.93;;;19.57;;
12812;SDS011;6471;50.932;6.934;2023-04-29T12:58:52;32.00;;;21.37;;
12812;SDS011;6471;50.932;6.934;2023-04-29T13:01:18;27.97;;;18.80;;
12812;SDS011;6471;50.932;6.934;2023-04-29T13:03:44;26.53;;;18.30;;
12812;SDS011;6471;50.932;6.934;2023-04-29T13:06:10;24.17;;;16.40;;
12812;SDS011;6471;50.932;6.934;2023-04-29T13:08:37;26.93;;;18.47;;
12812;SDS011;6471;50.932;6.934;2023-04-29T13:11:14;28.63;;;19.40;;
12812;SDS011;6471;50.932;6.934;2023-04-29T13:13:48;25.77;;;19.20;;
12812;SDS011;6471;50.932;6.934;2023-04-29T13:16:14;23.63;;;16.60;;
12812;SDS011;6471;50.932;6.934;2023-04-29T13:18:40;20.63;;;15.40;;
12812;SDS011;6471;50.932;6.934;2023-04-29T13:21:13;20.50;;;14.10;;
12812;SDS011;6471;50.932;6.934;2023-04-29T13:26:53;21.13;;;13.90;;
12812;SDS011;6471;50.932;6.934;2023-04-29T13:29:32;24.30;;;16.37;;
12812;SDS011;6471;50.932;6.934;2023-04-29T13:32:10;22.43;;;15.23;;
12812;SDS011;6471;50.932;6.934;2023-04-29T13:35:01;19.57;;;14.40;;
12812;SDS011;6471;50.932;6.934;2023-04-29T13:37:50;21.80;;;14.70;;
12812;SDS011;6471;50.932;6.934;2023-04-29T13:40:17;18.70;;;13.53;;
12812;SDS011;6471;50.932;6.934;2023-04-29T13:42:45;20.27;;;14.43;;
12812;SDS011;6471;50.932;6.934;2023-04-29T13:45:21;18.50;;;13.37;;
12812;SDS011;6471;50.932;6.934;2023-04-29T13:47:47;18.73;;;13.50;;
12812;SDS011;6471;50.932;6.934;2023-04-29T13:56:19;16.07;;;10.80;;
12812;SDS011;6471;50.932;6.934;2023-04-29T13:58:51;16.93;;;12.73;;
12812;SDS011;6471;50.932;6.934;2023-04-29T14:14:16;17.30;;;12.53;;
12812;SDS011;6471;50.932;6.934;2023-04-29T14:20:17;17.80;;;12.50;;
12812;SDS011;6471;50.932;6.934;2023-04-29T14:22:46;16.60;;;11.27;;
12812;SDS011;6471;50.932;6.934;2023-04-29T14:54:07;13.73;;;10.13;;
12812;SDS011;6471;50.932;6.934;2023-04-29T15:13:55;11.20;;;8.77;;
12812;SDS011;6471;50.932;6.934;2023-04-29T15:22:33;17.13;;;12.40;;
12812;SDS011;6471;50.932;6.934;2023-04-29T15:25:18;20.60;;;14.90;;
12812;SDS011;6471;50.932;6.934;2023-04-29T15:34:46;15.37;;;11.33;;
12812;SDS011;6471;50.932;6.934;2023-04-29T15:37:13;15.40;;;11.10;;
12812;SDS011;6471;50.932;6.934;2023-04-29T15:45:35;16.67;;;13.10;;
12812;SDS011;6471;50.932;6.934;2023-04-29T15:48:01;15.80;;;11.37;;
12812;SDS011;6471;50.932;6.934;2023-04-29T15:50:27;13.93;;;10.47;;
12812;SDS011;6471;50.932;6.934;2023-04-29T15:52:57;12.40;;;10.37;;
12812;SDS011;6471;50.932;6.934;2023-04-29T15:55:23;15.23;;;11.57;;
12812;SDS011;6471;50.932;6.934;2023-04-29T15:57:50;14.33;;;11.23;;
12812;SDS011;6471;50.932;6.934;2023-04-29T16:00:16;15.13;;;11.97;;
12812;SDS011;6471;50.932;6.934;2023-04-29T16:02:43;15.43;;;12.10;;
12812;SDS011;6471;50.932;6.934;2023-04-29T16:05:09;13.60;;;10.40;;
12812;SDS011;6471;50.932;6.934;2023-04-29T16:07:36;16.27;;;12.50;;
12812;SDS011;6471;50.932;6.934;2023-04-29T16:10:02;16.67;;;12.60;;
12812;SDS011;6471;50.932;6.934;2023-04-29T16:12:28;18.00;;;12.93;;
12812;SDS011;6471;50.932;6.934;2023-04-29T16:14:54;14.43;;;11.43;;
12812;SDS011;6471;50.932;6.934;2023-04-29T16:17:20;12.60;;;10.33;;
12812;SDS011;6471;50.932;6.934;2023-04-29T16:19:46;13.23;;;10.73;;
12812;SDS011;6471;50.932;6.934;2023-04-29T16:22:14;20.57;;;15.30;;
12812;SDS011;6471;50.932;6.934;2023-04-29T16:24:42;18.80;;;15.43;;
12812;SDS011;6471;50.932;6.934;2023-04-29T16:27:10;23.00;;;15.67;;
12812;SDS011;6471;50.932;6.934;2023-04-29T16:29:37;21.27;;;17.13;;
12812;SDS011;6471;50.932;6.934;2023-04-29T16:32:03;19.63;;;14.47;;
12812;SDS011;6471;50.932;6.934;2023-04-29T16:34:30;17.20;;;13.37;;
12812;SDS011;6471;50.932;6.934;2023-04-29T16:36:56;18.10;;;14.00;;
12812;SDS011;6471;50.932;6.934;2023-04-29T16:39:22;20.17;;;16.37;;
12812;SDS011;6471;50.932;6.934;2023-04-29T16:49:36;22.90;;;17.57;;
12812;SDS011;6471;50.932;6.934;2023-04-29T17:36:12;16.73;;;13.03;;
12812;SDS011;6471;50.932;6.934;2023-04-29T17:38:38;14.47;;;11.57;;
12812;SDS011;6471;50.932;6.934;2023-04-29T17:41:05;18.37;;;13.90;;
12812;SDS011;6471;50.932;6.934;2023-04-29T17:43:31;20.67;;;14.30;;
12812;SDS011;6471;50.932;6.934;2023-04-29T17:45:59;17.83;;;14.30;;
12812;SDS011;6471;50.932;6.934;2023-04-29T17:48:28;17.53;;;13.33;;
12812;SDS011;6471;50.932;6.934;2023-04-29T17:51:20;17.47;;;12.83;;
12812;SDS011;6471;50.932;6.934;2023-04-29T17:53:51;15.27;;;12.83;;
12812;SDS011;6471;50.932;6.934;2023-04-29T17:56:18;17.67;;;13.00;;
12812;SDS011;6471;50.932;6.934;2023-04-29T17:58:45;17.10;;;12.90;;
12812;SDS011;6471;50.932;6.934;2023-04-29T18:01:12;14.50;;;11.43;;
12812;SDS011;6471;50.932;6.934;2023-04-29T18:03:38;16.90;;;13.07;;
12812;SDS011;6471;50.932;6.934;2023-04-29T18:06:15;14.73;;;11.90;;
12812;SDS011;6471;50.932;6.934;2023-04-29T18:08:42;12.00;;;10.23;;
12812;SDS011;6471;50.932;6.934;2023-04-29T18:11:08;12.77;;;10.57;;
12812;SDS011;6471;50.932;6.934;2023-04-29T18:13:36;12.17;;;9.80;;
12812;SDS011;6471;50.932;6.934;2023-04-29T18:16:06;15.43;;;12.20;;
12812;SDS011;6471;50.932;6.934;2023-04-29T18:18:33;12.60;;;10.43;;
12812;SDS011;6471;50.932;6.934;2023-04-29T18:21:07;11.97;;;9.77;;
12812;SDS011;6471;50.932;6.934;2023-04-29T18:23:33;14.07;;;11.63;;
12812;SDS011;6471;50.932;6.934;2023-04-29T18:25:59;14.67;;;12.03;;
12812;SDS011;6471;50.932;6.934;2023-04-29T18:28:33;13.67;;;11.03;;
12812;SDS011;6471;50.932;6.934;2023-04-29T18:30:59;14.07;;;10.43;;
12812;SDS011;6471;50.932;6.934;2023-04-29T18:33:25;10.77;;;9.63;;
12812;SDS011;6471;50.932;6.934;2023-04-29T18:35:53;12.80;;;9.90;;
12812;SDS011;6471;50.932;6.934;2023-04-29T18:38:19;11.30;;;9.10;;
12812;SDS011;6471;50.932;6.934;2023-04-29T18:40:45;14.20;;;11.07;;
12812;SDS011;6471;50.932;6.934;2023-04-29T18:43:12;10.70;;;8.80;;
12812;SDS011;6471;50.932;6.934;2023-04-29T18:45:41;11.27;;;9.37;;
12812;SDS011;6471;50.932;6.934;2023-04-29T18:48:08;9.97;;;8.30;;
12812;SDS011;6471;50.932;6.934;2023-04-29T18:50:36;10.40;;;8.57;;
12812;SDS011;6471;50.932;6.934;2023-04-29T18:53:04;9.93;;;8.37;;
12812;SDS011;6471;50.932;6.934;2023-04-29T18:55:30;9.60;;;8.33;;
12812;SDS011;6471;50.932;6.934;2023-04-29T18:57:59;10.13;;;8.53;;
12812;SDS011;6471;50.932;6.934;2023-04-29T19:00:25;10.03;;;8.00;;
12812;SDS011;6471;50.932;6.934;2023-04-29T19:02:51;10.17;;;7.93;;
12812;SDS011;6471;50.932;6.934;2023-04-29T19:05:17;9.57;;;7.80;;
12812;SDS011;6471;50.932;6.934;2023-04-29T19:07:44;7.43;;;6.53;;
12812;SDS011;6471;50.932;6.934;2023-04-29T19:10:10;8.97;;;7.70;;
12812;SDS011;6471;50.932;6.934;2023-04-29T19:12:37;9.00;;;7.70;;
12812;SDS011;6471;50.932;6.934;2023-04-29T19:15:06;8.80;;;7.60;;
12812;SDS011;6471;50.932;6.934;2023-04-29T19:17:32;10.40;;;8.00;;
12812;SDS011;6471;50.932;6.934;2023-04-29T19:20:06;8.80;;;7.70;;
12812;SDS011;6471;50.932;6.934;2023-04-29T19:22:34;8.90;;;7.37;;
12812;SDS011;6471;50.932;6.934;2023-04-29T19:25:00;8.50;;;7.30;;
12812;SDS011;6471;50.932;6.934;2023-04-29T19:27:26;9.17;;;7.97;;
12812;SDS011;6471;50.932;6.934;2023-04-29T19:29:52;9.80;;;7.70;;
12812;SDS011;6471;50.932;6.934;2023-04-29T19:32:18;8.83;;;7.47;;
12812;SDS011;6471;50.932;6.934;2023-04-29T19:34:44;8.73;;;7.73;;
12812;SDS011;6471;50.932;6.934;2023-04-29T19:37:11;9.57;;;7.73;;
12812;SDS011;6471;50.932;6.934;2023-04-29T19:39:39;10.83;;;8.37;;
12812;SDS011;6471;50.932;6.934;2023-04-29T19:42:05;8.60;;;7.10;;
12812;SDS011;6471;50.932;6.934;2023-04-29T19:44:31;9.70;;;7.80;;
12812;SDS011;6471;50.932;6.934;2023-04-29T19:47:03;8.93;;;7.43;;
12812;SDS011;6471;50.932;6.934;2023-04-29T19:49:51;8.53;;;7.27;;
12812;SDS011;6471;50.932;6.934;2023-04-29T19:58:57;7.80;;;6.50;;
12812;SDS011;6471;50.932;6.934;2023-04-29T20:29:56;9.27;;;7.83;;
12812;SDS011;6471;50.932;6.934;2023-04-29T20:32:24;11.23;;;8.47;;
12812;SDS011;6471;50.932;6.934;2023-04-29T20:37:45;9.23;;;7.57;;
12812;SDS011;6471;50.932;6.934;2023-04-29T20:40:15;8.67;;;7.77;;
12812;SDS011;6471;50.932;6.934;2023-04-29T21:43:06;8.87;;;7.67;;
12812;SDS011;6471;50.932;6.934;2023-04-29T21:45:35;9.83;;;8.00;;
12812;SDS011;6471;50.932;6.934;2023-04-29T21:48:14;9.83;;;8.00;;
12812;SDS011;6471;50.932;6.934;2023-04-29T21:50:40;10.83;;;9.00;;
12812;SDS011;6471;50.932;6.934;2023-04-29T21:53:28;9.53;;;7.63;;
12812;SDS011;6471;50.932;6.934;2023-04-29T21:55:57;10.13;;;7.60;;
12812;SDS011;6471;50.932;6.934;2023-04-29T21:58:25;11.03;;;8.90;;
12812;SDS011;6471;50.932;6.934;2023-04-29T22:16:17;11.37;;;8.63;;
12812;SDS011;6471;50.932;6.934;2023-04-29T22:18:43;10.10;;;8.37;;
12812;SDS011;6471;50.932;6.934;2023-04-29T22:21:10;11.93;;;9.20;;
12812;SDS011;6471;50.932;6.934;2023-04-29T22:24:11;11.70;;;9.20;;
12812;SDS011;6471;50.932;6.934;2023-04-29T22:26:56;10.80;;;8.27;;
12812;SDS011;6471;50.932;6.934;2023-04-29T22:29:22;9.33;;;8.23;;
12812;SDS011;6471;50.932;6.934;2023-04-29T22:31:48;10.60;;;8.27;;
12812;SDS011;6471;50.932;6.934;2023-04-29T22:34:15;12.87;;;9.87;;
12812;SDS011;6471;50.932;6.934;2023-04-29T22:36:41;12.03;;;9.67;;
12812;SDS011;6471;50.932;6.934;2023-04-29T22:39:07;14.83;;;11.57;;
12812;SDS011;6471;50.932;6.934;2023-04-29T22:41:33;11.97;;;9.73;;
12812;SDS011;6471;50.932;6.934;2023-04-29T22:43:59;12.00;;;9.60;;
12812;SDS011;6471;50.932;6.934;2023-04-29T22:46:25;11.17;;;9.07;;
12812;SDS011;6471;50.932;6.934;2023-04-29T22:48:51;12.33;;;10.27;;
12812;SDS011;6471;50.932;6.934;2023-04-29T22:51:17;13.13;;;10.33;;
12812;SDS011;6471;50.932;6.934;2023-04-29T22:53:44;13.10;;;10.27;;
12812;SDS011;6471;50.932;6.934;2023-04-29T22:56:10;15.10;;;10.30;;
12812;SDS011;6471;50.932;6.934;2023-04-29T22:58:36;11.90;;;9.60;;
12812;SDS011;6471;50.932;6.934;2023-04-29T23:01:03;12.40;;;9.77;;
12812;SDS011;6471;50.932;6.934;2023-04-29T23:03:29;13.00;;;9.93;;
12812;SDS011;6471;50.932;6.934;2023-04-29T23:05:56;11.63;;;9.53;;
12812;SDS011;6471;50.932;6.934;2023-04-29T23:08:23;12.33;;;9.57;;
12812;SDS011;6471;50.932;6.934;2023-04-29T23:10:49;11.80;;;9.20;;
12812;SDS011;6471;50.932;6.934;2023-04-29T23:13:15;11.47;;;9.23;;
12812;SDS011;6471;50.932;6.934;2023-04-29T23:15:41;11.10;;;8.70;;
12812;SDS011;6471;50.932;6.934;2023-04-29T23:18:07;12.60;;;9.83;;
12812;SDS011;6471;50.932;6.934;2023-04-29T23:20:33;12.20;;;9.17;;
12812;SDS011;6471;50.932;6.934;2023-04-29T23:23:00;12.10;;;9.57;;
12812;SDS011;6471;50.932;6.934;2023-04-29T23:25:26;14.37;;;10.00;;
12812;SDS011;6471;50.932;6.934;2023-04-29T23:27:52;16.50;;;13.07;;
12812;SDS011;6471;50.932;6.934;2023-04-29T23:30:19;15.97;;;12.50;;
12812;SDS011;6471;50.932;6.934;2023-04-29T23:32:45;14.53;;;10.93;;
12812;SDS011;6471;50.932;6.934;2023-04-29T23:35:14;13.33;;;10.30;;
12812;SDS011;6471;50.932;6.934;2023-04-29T23:37:44;13.97;;;10.73;;
12812;SDS011;6471;50.932;6.934;2023-04-29T23:40:11;14.03;;;10.20;;
12812;SDS011;6471;50.932;6.934;2023-04-29T23:42:37;10.73;;;9.17;;
12812;SDS011;6471;50.932;6.934;2023-04-29T23:45:03;10.73;;;8.80;;
12812;SDS011;6471;50.932;6.934;2023-04-29T23:47:30;12.50;;;9.87;;
12812;SDS011;6471;50.932;6.934;2023-04-29T23:49:56;16.47;;;12.50;;
12812;SDS011;6471;50.932;6.934;2023-04-29T23:52:22;15.80;;;11.73;;
12812;SDS011;6471;50.932;6.934;2023-04-29T23:54:48;15.83;;;11.87;;
12812;SDS011;6471;50.932;6.934;2023-04-29T23:57:14;15.87;;;12.17;;
12812;SDS011;6471;50.932;6.934;2023-04-29T23:59:40;17.23;;;13.03;;
